sensor_id;sensor_type;location;lat;lon;timestamp;pressure;altitude;pressure_sealevel;temperature;humidity
75447;BME280;64024;55.820;37.574;2023-06-14T00:01:54;99239.69;;;21.84;30.96
75447;BME280;64024;55.820;37.574;2023-06-14T00:04:20;99229.41;;;21.81;31.08
75447;BME280;64024;55.820;37.574;2023-06-14T00:06:47;99221.88;;;21.78;31.14
75447;BME280;64024;55.820;37.574;2023-06-14T00:09:13;99228.66;;;21.75;31.21
75447;BME280;64024;55.820;37.574;2023-06-14T00:11:42;99235.41;;;21.73;31.38
75447;BME280;64024;55.820;37.574;2023-06-14T00:14:08;99228.94;;;21.69;31.43
75447;BME280;64024;55.820;37.574;2023-06-14T00:16:33;99227.38;;;21.63;31.51
75447;BME280;64024;55.820;37.574;2023-06-14T00:19:03;99223.09;;;21.56;31.59
75447;BME280;64024;55.820;37.574;2023-06-14T00:21:30;99229.88;;;21.54;31.65
75447;BME280;64024;55.820;37.574;2023-06-14T00:23:57;99232.34;;;21.50;31.68
75447;BME280;64024;55.820;37.574;2023-06-14T00:26:23;99239.94;;;21.48;31.79
75447;BME280;64024;55.820;37.574;2023-06-14T00:28:49;99233.97;;;21.46;31.74
75447;BME280;64024;55.820;37.574;2023-06-14T00:31:14;99233.72;;;21.43;31.96
75447;BME280;64024;55.820;37.574;2023-06-14T00:33:40;99236.44;;;21.43;32.04
75447;BME280;64024;55.820;37.574;2023-06-14T00:36:06;99231.31;;;21.41;31.96
75447;BME280;64024;55.820;37.574;2023-06-14T00:38:31;99238.06;;;21.39;32.30
75447;BME280;64024;55.820;37.574;2023-06-14T00:40:57;99233.22;;;21.35;32.13
75447;BME280;64024;55.820;37.574;2023-06-14T00:43:23;99231.09;;;21.32;32.30
75447;BME280;64024;55.820;37.574;2023-06-14T00:45:48;99232.41;;;21.30;32.54
75447;BME280;64024;55.820;37.574;2023-06-14T00:48:17;99230.25;;;21.27;32.55
75447;BME280;64024;55.820;37.574;2023-06-14T00:50:43;99230.84;;;21.24;32.59
75447;BME280;64024;55.820;37.574;2023-06-14T00:53:12;99238.41;;;21.22;32.55
75447;BME280;64024;55.820;37.574;2023-06-14T00:55:37;99226.28;;;21.19;32.69
75447;BME280;64024;55.820;37.574;2023-06-14T00:58:03;99223.03;;;21.17;32.79
75447;BME280;64024;55.820;37.574;2023-06-14T01:00:29;99223.31;;;21.16;33.04
75447;BME280;64024;55.820;37.574;2023-06-14T01:02:55;99227.91;;;21.15;32.84
75447;BME280;64024;55.820;37.574;2023-06-14T01:05:23;99229.78;;;21.15;32.79
75447;BME280;64024;55.820;37.574;2023-06-14T01:11:10;99222.22;;;21.17;33.02
75447;BME280;64024;55.820;37.574;2023-06-14T01:13:39;99224.13;;;21.16;32.99
75447;BME280;64024;55.820;37.574;2023-06-14T01:16:08;99226.81;;;21.16;33.18
75447;BME280;64024;55.820;37.574;2023-06-14T01:18:34;99231.94;;;21.18;33.14
75447;BME280;64024;55.820;37.574;2023-06-14T01:21:00;99228.44;;;21.17;33.00
75447;BME280;64024;55.820;37.574;2023-06-14T01:23:31;99230.31;;;21.17;33.00
75447;BME280;64024;55.820;37.574;2023-06-14T01:25:58;99230.31;;;21.17;33.04
75447;BME280;64024;55.820;37.574;2023-06-14T01:28:26;99227.88;;;21.20;33.31
75447;BME280;64024;55.820;37.574;2023-06-14T01:31:00;99230.28;;;21.22;33.25
75447;BME280;64024;55.820;37.574;2023-06-14T01:33:29;99231.66;;;21.24;33.04
75447;BME280;64024;55.820;37.574;2023-06-14T01:35:56;99228.66;;;21.26;33.08
75447;BME280;64024;55.820;37.574;2023-06-14T01:38:26;99230.50;;;21.30;33.27
75447;BME280;64024;55.820;37.574;2023-06-14T01:40:54;99232.69;;;21.33;33.17
75447;BME280;64024;55.820;37.574;2023-06-14T01:43:21;99232.66;;;21.39;32.96
75447;BME280;64024;55.820;37.574;2023-06-14T01:45:48;99236.97;;;21.45;33.24
75447;BME280;64024;55.820;37.574;2023-06-14T01:48:14;99236.94;;;21.50;33.13
75447;BME280;64024;55.820;37.574;2023-06-14T01:50:40;99230.69;;;21.54;32.98
75447;BME280;64024;55.820;37.574;2023-06-14T01:53:09;99230.38;;;21.61;33.27
75447;BME280;64024;55.820;37.574;2023-06-14T01:55:35;99235.75;;;21.66;33.06
75447;BME280;64024;55.820;37.574;2023-06-14T01:58:03;99234.59;;;21.72;32.99
75447;BME280;64024;55.820;37.574;2023-06-14T02:00:29;99237.31;;;21.77;33.04
75447;BME280;64024;55.820;37.574;2023-06-14T02:02:55;99231.56;;;21.84;32.87
75447;BME280;64024;55.820;37.574;2023-06-14T02:05:21;99229.34;;;21.91;32.86
75447;BME280;64024;55.820;37.574;2023-06-14T02:07:47;99221.72;;;21.98;32.77
75447;BME280;64024;55.820;37.574;2023-06-14T02:10:13;99227.59;;;22.05;32.72
75447;BME280;64024;55.820;37.574;2023-06-14T02:12:39;99225.94;;;22.15;32.91
75447;BME280;64024;55.820;37.574;2023-06-14T02:15:05;99230.72;;;22.23;32.66
75447;BME280;64024;55.820;37.574;2023-06-14T02:17:32;99230.09;;;22.31;32.51
75447;BME280;64024;55.820;37.574;2023-06-14T02:19:58;99224.06;;;22.39;32.48
75447;BME280;64024;55.820;37.574;2023-06-14T02:22:24;99227.50;;;22.50;32.51
75447;BME280;64024;55.820;37.574;2023-06-14T02:24:50;99228.75;;;22.57;32.38
75447;BME280;64024;55.820;37.574;2023-06-14T02:27:16;99224.88;;;22.64;32.46
75447;BME280;64024;55.820;37.574;2023-06-14T02:29:42;99224.56;;;22.70;32.19
75447;BME280;64024;55.820;37.574;2023-06-14T02:32:08;99227.75;;;22.77;32.10
75447;BME280;64024;55.820;37.574;2023-06-14T02:34:34;99233.09;;;22.82;31.93
75447;BME280;64024;55.820;37.574;2023-06-14T02:37:00;99232.22;;;22.87;31.89
75447;BME280;64024;55.820;37.574;2023-06-14T02:39:28;99231.09;;;22.93;32.16
75447;BME280;64024;55.820;37.574;2023-06-14T02:41:54;99226.44;;;22.99;31.71
75447;BME280;64024;55.820;37.574;2023-06-14T02:44:24;99239.91;;;23.04;31.71
75447;BME280;64024;55.820;37.574;2023-06-14T02:46:50;99235.22;;;23.10;31.90
75447;BME280;64024;55.820;37.574;2023-06-14T02:49:16;99232.16;;;23.16;31.85
75447;BME280;64024;55.820;37.574;2023-06-14T02:51:42;99237.25;;;23.23;31.45
75447;BME280;64024;55.820;37.574;2023-06-14T02:54:07;99235.75;;;23.30;31.77
75447;BME280;64024;55.820;37.574;2023-06-14T02:56:33;99243.53;;;23.37;31.22
75447;BME280;64024;55.820;37.574;2023-06-14T02:58:59;99246.41;;;23.46;31.13
75447;BME280;64024;55.820;37.574;2023-06-14T03:01:26;99235.47;;;23.51;31.60
75447;BME280;64024;55.820;37.574;2023-06-14T03:04:03;99245.66;;;23.59;31.35
75447;BME280;64024;55.820;37.574;2023-06-14T03:06:29;99236.66;;;23.64;31.25
75447;BME280;64024;55.820;37.574;2023-06-14T03:08:56;99242.84;;;23.69;31.07
75447;BME280;64024;55.820;37.574;2023-06-14T03:11:25;99253.03;;;23.77;31.35
75447;BME280;64024;55.820;37.574;2023-06-14T03:13:51;99249.13;;;23.84;31.43
75447;BME280;64024;55.820;37.574;2023-06-14T03:16:17;99255.31;;;23.89;31.35
75447;BME280;64024;55.820;37.574;2023-06-14T03:18:49;99252.19;;;23.96;31.42
75447;BME280;64024;55.820;37.574;2023-06-14T03:21:14;99252.94;;;24.01;31.46
75447;BME280;64024;55.820;37.574;2023-06-14T03:23:42;99254.47;;;24.08;31.84
75447;BME280;64024;55.820;37.574;2023-06-14T03:26:07;99248.94;;;24.13;31.70
75447;BME280;64024;55.820;37.574;2023-06-14T03:28:34;99248.84;;;24.18;31.95
75447;BME280;64024;55.820;37.574;2023-06-14T03:30:59;99247.66;;;24.24;31.71
75447;BME280;64024;55.820;37.574;2023-06-14T03:33:26;99246.47;;;24.30;31.71
75447;BME280;64024;55.820;37.574;2023-06-14T03:35:52;99250.19;;;24.34;31.50
75447;BME280;64024;55.820;37.574;2023-06-14T03:38:18;99242.81;;;24.40;31.32
75447;BME280;64024;55.820;37.574;2023-06-14T03:40:44;99244.94;;;24.43;31.76
75447;BME280;64024;55.820;37.574;2023-06-14T03:43:10;99244.03;;;24.47;31.68
75447;BME280;64024;55.820;37.574;2023-06-14T03:45:35;99243.94;;;24.52;31.81
75447;BME280;64024;55.820;37.574;2023-06-14T03:48:01;99241.44;;;24.56;31.52
75447;BME280;64024;55.820;37.574;2023-06-14T03:50:28;99241.66;;;24.60;31.76
75447;BME280;64024;55.820;37.574;2023-06-14T03:52:54;99236.38;;;24.63;31.73
75447;BME280;64024;55.820;37.574;2023-06-14T03:55:20;99237.41;;;24.67;31.85
75447;BME280;64024;55.820;37.574;2023-06-14T03:57:46;99242.75;;;24.72;31.59
75447;BME280;64024;55.820;37.574;2023-06-14T04:00:12;99242.13;;;24.75;31.67
75447;BME280;64024;55.820;37.574;2023-06-14T04:02:38;99241.25;;;24.80;31.54
75447;BME280;64024;55.820;37.574;2023-06-14T04:05:04;99237.91;;;24.83;31.44
75447;BME280;64024;55.820;37.574;2023-06-14T04:07:34;99245.47;;;24.86;31.75
75447;BME280;64024;55.820;37.574;2023-06-14T04:10:06;99245.69;;;24.90;31.56
75447;BME280;64024;55.820;37.574;2023-06-14T04:12:32;99250.50;;;24.93;31.35
75447;BME280;64024;55.820;37.574;2023-06-14T04:14:58;99243.16;;;24.93;31.19
75447;BME280;64024;55.820;37.574;2023-06-14T04:17:23;99240.13;;;24.95;31.15
75447;BME280;64024;55.820;37.574;2023-06-14T04:19:49;99243.38;;;24.97;31.12
75447;BME280;64024;55.820;37.574;2023-06-14T04:22:15;99244.66;;;24.99;31.09
75447;BME280;64024;55.820;37.574;2023-06-14T04:24:41;99247.09;;;25.01;31.01
75447;BME280;64024;55.820;37.574;2023-06-14T04:27:07;99242.13;;;25.03;30.99
75447;BME280;64024;55.820;37.574;2023-06-14T04:29:33;99245.06;;;25.07;31.14
75447;BME280;64024;55.820;37.574;2023-06-14T04:31:59;99243.69;;;25.09;31.20
75447;BME280;64024;55.820;37.574;2023-06-14T04:34:28;99243.06;;;25.12;31.40
75447;BME280;64024;55.820;37.574;2023-06-14T04:36:58;99242.47;;;25.15;31.20
75447;BME280;64024;55.820;37.574;2023-06-14T04:39:25;99246.50;;;25.18;31.06
75447;BME280;64024;55.820;37.574;2023-06-14T04:41:51;99247.06;;;25.28;31.05
75447;BME280;64024;55.820;37.574;2023-06-14T04:44:18;99247.06;;;25.28;31.08
75447;BME280;64024;55.820;37.574;2023-06-14T04:46:45;99252.81;;;25.27;31.24
75447;BME280;64024;55.820;37.574;2023-06-14T04:49:13;99247.88;;;25.29;31.03
75447;BME280;64024;55.820;37.574;2023-06-14T04:51:41;99248.38;;;25.31;31.21
75447;BME280;64024;55.820;37.574;2023-06-14T04:54:11;99249.66;;;25.34;30.99
75447;BME280;64024;55.820;37.574;2023-06-14T04:56:39;99243.63;;;25.37;31.00
75447;BME280;64024;55.820;37.574;2023-06-14T04:59:05;99245.75;;;25.40;30.99
75447;BME280;64024;55.820;37.574;2023-06-14T05:01:32;99232.63;;;25.42;30.87
75447;BME280;64024;55.820;37.574;2023-06-14T05:03:58;99238.25;;;25.45;30.89
75447;BME280;64024;55.820;37.574;2023-06-14T05:06:25;99242.31;;;25.48;31.29
75447;BME280;64024;55.820;37.574;2023-06-14T05:08:51;99235.41;;;25.50;30.80
75447;BME280;64024;55.820;37.574;2023-06-14T05:11:17;99238.66;;;25.52;30.64
75447;BME280;64024;55.820;37.574;2023-06-14T05:13:42;99248.94;;;25.56;30.75
75447;BME280;64024;55.820;37.574;2023-06-14T05:16:10;99240.97;;;25.59;30.56
75447;BME280;64024;55.820;37.574;2023-06-14T05:18:37;99242.25;;;25.62;30.98
75447;BME280;64024;55.820;37.574;2023-06-14T05:21:04;99241.66;;;25.65;30.59
75447;BME280;64024;55.820;37.574;2023-06-14T05:23:30;99241.84;;;25.68;30.58
75447;BME280;64024;55.820;37.574;2023-06-14T05:25:56;99246.97;;;25.70;30.91
75447;BME280;64024;55.820;37.574;2023-06-14T05:28:22;99243.63;;;25.73;30.74
75447;BME280;64024;55.820;37.574;2023-06-14T05:30:48;99243.03;;;25.76;30.41
75447;BME280;64024;55.820;37.574;2023-06-14T05:33:14;99247.88;;;25.79;30.66
75447;BME280;64024;55.820;37.574;2023-06-14T05:35:40;99247.56;;;25.81;30.71
75447;BME280;64024;55.820;37.574;2023-06-14T05:38:05;99249.66;;;25.84;30.38
75447;BME280;64024;55.820;37.574;2023-06-14T05:40:33;99252.09;;;25.85;30.59
75447;BME280;64024;55.820;37.574;2023-06-14T05:42:59;99246.84;;;25.89;30.48
75447;BME280;64024;55.820;37.574;2023-06-14T05:45:24;99242.66;;;25.91;30.57
75447;BME280;64024;55.820;37.574;2023-06-14T05:47:50;99247.50;;;25.94;30.30
75447;BME280;64024;55.820;37.574;2023-06-14T05:50:16;99244.16;;;25.97;30.29
75447;BME280;64024;55.820;37.574;2023-06-14T05:52:42;99246.44;;;26.04;30.43
75447;BME280;64024;55.820;37.574;2023-06-14T05:55:08;99247.13;;;26.10;30.46
75447;BME280;64024;55.820;37.574;2023-06-14T05:57:37;99254.56;;;26.18;30.35
75447;BME280;64024;55.820;37.574;2023-06-14T06:00:03;99248.66;;;26.24;30.35
75447;BME280;64024;55.820;37.574;2023-06-14T06:02:43;99251.56;;;26.28;30.17
75447;BME280;64024;55.820;37.574;2023-06-14T06:05:10;99257.81;;;26.28;29.91
75447;BME280;64024;55.820;37.574;2023-06-14T06:07:39;99259.75;;;26.28;30.00
75447;BME280;64024;55.820;37.574;2023-06-14T06:10:10;99253.50;;;26.27;30.13
75447;BME280;64024;55.820;37.574;2023-06-14T06:12:37;99253.81;;;26.26;30.18
75447;BME280;64024;55.820;37.574;2023-06-14T06:15:03;99251.88;;;26.26;29.99
75447;BME280;64024;55.820;37.574;2023-06-14T06:17:29;99256.53;;;26.26;30.12
75447;BME280;64024;55.820;37.574;2023-06-14T06:19:55;99251.38;;;26.24;29.83
75447;BME280;64024;55.820;37.574;2023-06-14T06:22:21;99251.38;;;26.24;29.92
75447;BME280;64024;55.820;37.574;2023-06-14T06:24:46;99256.03;;;26.24;29.70
75447;BME280;64024;55.820;37.574;2023-06-14T06:27:12;99255.22;;;26.23;29.68
75447;BME280;64024;55.820;37.574;2023-06-14T06:29:38;99248.97;;;26.23;29.37
75447;BME280;64024;55.820;37.574;2023-06-14T06:32:04;99248.97;;;26.23;29.08
75447;BME280;64024;55.820;37.574;2023-06-14T06:34:30;99247.38;;;26.22;29.05
75447;BME280;64024;55.820;37.574;2023-06-14T06:36:56;99236.47;;;26.22;29.26
75447;BME280;64024;55.820;37.574;2023-06-14T06:39:22;99224.78;;;26.21;29.55
75447;BME280;64024;55.820;37.574;2023-06-14T06:41:47;99238.69;;;26.20;29.49
75447;BME280;64024;55.820;37.574;2023-06-14T06:44:13;99243.03;;;26.21;29.62
75447;BME280;64024;55.820;37.574;2023-06-14T06:46:39;99240.31;;;26.21;29.12
75447;BME280;64024;55.820;37.574;2023-06-14T06:49:07;99242.22;;;26.20;29.20
75447;BME280;64024;55.820;37.574;2023-06-14T06:51:32;99234.06;;;26.20;29.24
75447;BME280;64024;55.820;37.574;2023-06-14T06:53:58;99241.94;;;26.22;28.96
75447;BME280;64024;55.820;37.574;2023-06-14T06:56:24;99231.31;;;26.20;28.94
75447;BME280;64024;55.820;37.574;2023-06-14T06:58:50;99230.22;;;26.21;29.02
75447;BME280;64024;55.820;37.574;2023-06-14T07:01:17;99242.22;;;26.20;28.86
75447;BME280;64024;55.820;37.574;2023-06-14T07:03:43;99235.97;;;26.20;29.00
75447;BME280;64024;55.820;37.574;2023-06-14T07:06:08;99237.09;;;26.19;28.86
75447;BME280;64024;55.820;37.574;2023-06-14T07:08:35;99230.03;;;26.18;28.95
75447;BME280;64024;55.820;37.574;2023-06-14T07:11:01;99231.66;;;26.19;28.67
75447;BME280;64024;55.820;37.574;2023-06-14T07:13:27;99237.09;;;26.19;28.89
75447;BME280;64024;55.820;37.574;2023-06-14T07:15:57;99238.22;;;26.18;28.89
75447;BME280;64024;55.820;37.574;2023-06-14T07:18:24;99237.09;;;26.19;28.43
75447;BME280;64024;55.820;37.574;2023-06-14T07:20:50;99244.16;;;26.20;28.18
75447;BME280;64024;55.820;37.574;2023-06-14T07:23:16;99232.13;;;26.21;27.79
75447;BME280;64024;55.820;37.574;2023-06-14T07:25:42;99238.69;;;26.20;27.38
75447;BME280;64024;55.820;37.574;2023-06-14T07:28:07;99237.09;;;26.19;27.28
75447;BME280;64024;55.820;37.574;2023-06-14T07:30:33;99229.72;;;26.19;27.13
75447;BME280;64024;55.820;37.574;2023-06-14T07:32:59;99227.00;;;26.19;27.11
75447;BME280;64024;55.820;37.574;2023-06-14T07:35:25;99230.53;;;26.20;27.10
75447;BME280;64024;55.820;37.574;2023-06-14T07:37:51;99227.81;;;26.20;26.54
75447;BME280;64024;55.820;37.574;2023-06-14T07:40:17;99217.22;;;26.18;26.67
75447;BME280;64024;55.820;37.574;2023-06-14T07:42:43;99231.13;;;26.17;26.69
75447;BME280;64024;55.820;37.574;2023-06-14T07:45:09;99231.00;;;26.13;26.81
75447;BME280;64024;55.820;37.574;2023-06-14T07:47:35;99228.88;;;26.10;26.55
75447;BME280;64024;55.820;37.574;2023-06-14T07:50:01;99216.66;;;26.08;26.58
75447;BME280;64024;55.820;37.574;2023-06-14T07:52:28;99220.88;;;26.14;26.57
75447;BME280;64024;55.820;37.574;2023-06-14T07:54:53;99225.16;;;26.06;26.71
75447;BME280;64024;55.820;37.574;2023-06-14T07:57:19;99226.38;;;26.00;26.52
75447;BME280;64024;55.820;37.574;2023-06-14T07:59:46;99223.78;;;25.95;26.54
75447;BME280;64024;55.820;37.574;2023-06-14T08:02:11;99222.53;;;25.92;26.44
75447;BME280;64024;55.820;37.574;2023-06-14T08:04:37;99217.88;;;25.93;26.53
75447;BME280;64024;55.820;37.574;2023-06-14T08:07:03;99229.38;;;25.90;26.26
75447;BME280;64024;55.820;37.574;2023-06-14T08:09:29;99231.91;;;25.86;25.97
75447;BME280;64024;55.820;37.574;2023-06-14T08:11:55;99229.78;;;25.83;26.03
75447;BME280;64024;55.820;37.574;2023-06-14T08:14:21;99228.81;;;25.79;26.04
75447;BME280;64024;55.820;37.574;2023-06-14T08:16:47;99222.03;;;25.76;26.00
75447;BME280;64024;55.820;37.574;2023-06-14T08:19:13;99223.16;;;25.75;25.98
75447;BME280;64024;55.820;37.574;2023-06-14T08:21:39;99221.53;;;25.74;26.01
75447;BME280;64024;55.820;37.574;2023-06-14T08:24:05;99228.09;;;25.73;26.05
75447;BME280;64024;55.820;37.574;2023-06-14T08:26:31;99220.25;;;25.72;26.22
75447;BME280;64024;55.820;37.574;2023-06-14T08:28:57;99218.63;;;25.71;26.04
75447;BME280;64024;55.820;37.574;2023-06-14T08:31:23;99220.53;;;25.70;25.98
75447;BME280;64024;55.820;37.574;2023-06-14T08:33:50;99220.06;;;25.68;25.91
75447;BME280;64024;55.820;37.574;2023-06-14T08:36:16;99220.34;;;25.67;26.15
75447;BME280;64024;55.820;37.574;2023-06-14T08:38:41;99226.44;;;25.64;26.10
75447;BME280;64024;55.820;37.574;2023-06-14T08:41:07;99218.56;;;25.62;26.15
75447;BME280;64024;55.820;37.574;2023-06-14T08:43:36;99223.53;;;25.60;26.13
75447;BME280;64024;55.820;37.574;2023-06-14T08:46:10;99220.78;;;25.60;26.41
75447;BME280;64024;55.820;37.574;2023-06-14T08:48:47;99218.88;;;25.61;26.45
75447;BME280;64024;55.820;37.574;2023-06-14T08:51:18;99206.06;;;25.61;26.23
75447;BME280;64024;55.820;37.574;2023-06-14T08:53:44;99208.47;;;25.63;26.50
75447;BME280;64024;55.820;37.574;2023-06-14T08:56:11;99201.94;;;25.64;26.23
75447;BME280;64024;55.820;37.574;2023-06-14T08:58:43;99192.97;;;25.63;26.47
75447;BME280;64024;55.820;37.574;2023-06-14T09:01:11;99206.25;;;25.65;26.21
75447;BME280;64024;55.820;37.574;2023-06-14T09:03:42;99210.59;;;25.66;26.16
75447;BME280;64024;55.820;37.574;2023-06-14T09:06:08;99192.66;;;25.65;26.25
75447;BME280;64024;55.820;37.574;2023-06-14T09:08:43;99192.13;;;25.63;26.34
75447;BME280;64024;55.820;37.574;2023-06-14T09:11:15;99205.28;;;25.61;26.17
75447;BME280;64024;55.820;37.574;2023-06-14T09:13:41;99200.16;;;25.59;26.20
75447;BME280;64024;55.820;37.574;2023-06-14T09:16:07;99197.72;;;25.58;26.13
75447;BME280;64024;55.820;37.574;2023-06-14T09:21:02;99198.84;;;25.57;26.25
75447;BME280;64024;55.820;37.574;2023-06-14T09:23:28;99190.34;;;25.58;26.10
75447;BME280;64024;55.820;37.574;2023-06-14T09:25:54;99190.34;;;25.58;26.14
75447;BME280;64024;55.820;37.574;2023-06-14T09:28:19;99188.44;;;25.59;26.53
75447;BME280;64024;55.820;37.574;2023-06-14T09:30:48;99186.81;;;25.58;26.39
75447;BME280;64024;55.820;37.574;2023-06-14T09:33:19;99187.94;;;25.57;26.14
75447;BME280;64024;55.820;37.574;2023-06-14T09:35:46;99189.88;;;25.56;26.26
75447;BME280;64024;55.820;37.574;2023-06-14T09:38:15;99182.81;;;25.55;26.47
75447;BME280;64024;55.820;37.574;2023-06-14T09:40:41;99180.38;;;25.53;26.21
75447;BME280;64024;55.820;37.574;2023-06-14T09:43:07;99183.13;;;25.53;26.40
75447;BME280;64024;55.820;37.574;2023-06-14T09:45:37;99181.50;;;25.52;26.46
75447;BME280;64024;55.820;37.574;2023-06-14T09:48:07;99187.75;;;25.53;26.51
75447;BME280;64024;55.820;37.574;2023-06-14T09:50:34;99185.53;;;25.55;26.62
75447;BME280;64024;55.820;37.574;2023-06-14T09:53:10;99185.72;;;25.59;26.37
75447;BME280;64024;55.820;37.574;2023-06-14T09:55:37;99183.81;;;25.59;26.48
75447;BME280;64024;55.820;37.574;2023-06-14T09:58:07;99182.69;;;25.60;26.22
75447;BME280;64024;55.820;37.574;2023-06-14T10:00:33;99179.97;;;25.60;26.45
75447;BME280;64024;55.820;37.574;2023-06-14T10:03:29;99178.84;;;25.61;26.23
75447;BME280;64024;55.820;37.574;2023-06-14T10:05:58;99171.50;;;25.62;26.18
75447;BME280;64024;55.820;37.574;2023-06-14T10:08:28;99161.72;;;25.61;26.01
75447;BME280;64024;55.820;37.574;2023-06-14T10:10:57;99168.75;;;25.62;25.96
75447;BME280;64024;55.820;37.574;2023-06-14T10:13:26;99151.63;;;25.61;25.75
75447;BME280;64024;55.820;37.574;2023-06-14T10:16:28;99155.16;;;25.62;25.72
75447;BME280;64024;55.820;37.574;2023-06-14T10:24:33;99163.44;;;25.57;25.78
75447;BME280;64024;55.820;37.574;2023-06-14T10:27:06;99154.78;;;25.54;25.63
75447;BME280;64024;55.820;37.574;2023-06-14T10:32:27;99132.53;;;25.52;25.83
75447;BME280;64024;55.820;37.574;2023-06-14T10:34:55;99137.16;;;25.52;25.78
75447;BME280;64024;55.820;37.574;2023-06-14T10:37:22;99155.09;;;25.53;26.20
75447;BME280;64024;55.820;37.574;2023-06-14T10:39:48;99154.28;;;25.52;26.08
75447;BME280;64024;55.820;37.574;2023-06-14T10:42:15;99143.72;;;25.51;26.00
75447;BME280;64024;55.820;37.574;2023-06-14T10:44:57;99148.06;;;25.52;25.84
75447;BME280;64024;55.820;37.574;2023-06-14T10:47:33;99152.69;;;25.51;26.25
75447;BME280;64024;55.820;37.574;2023-06-14T10:50:08;99140.69;;;25.52;26.17
75447;BME280;64024;55.820;37.574;2023-06-14T10:52:38;99125.97;;;25.53;26.36
75447;BME280;64024;55.820;37.574;2023-06-14T10:55:09;99117.81;;;25.53;26.43
75447;BME280;64024;55.820;37.574;2023-06-14T10:57:37;99125.66;;;25.55;26.36
75447;BME280;64024;55.820;37.574;2023-06-14T11:00:07;99115.59;;;25.56;26.38
75447;BME280;64024;55.820;37.574;2023-06-14T11:11:07;99105.97;;;25.58;26.21
75447;BME280;64024;55.820;37.574;2023-06-14T11:13:36;99109.03;;;25.57;26.25
75447;BME280;64024;55.820;37.574;2023-06-14T11:16:02;99109.81;;;25.57;26.39
75447;BME280;64024;55.820;37.574;2023-06-14T11:18:28;99109.50;;;25.59;26.23
75447;BME280;64024;55.820;37.574;2023-06-14T11:20:54;99105.38;;;25.61;26.45
75447;BME280;64024;55.820;37.574;2023-06-14T11:23:21;99108.59;;;25.63;26.28
75447;BME280;64024;55.820;37.574;2023-06-14T11:25:51;99107.78;;;25.63;26.05
75447;BME280;64024;55.820;37.574;2023-06-14T11:28:17;99108.59;;;25.63;26.15
75447;BME280;64024;55.820;37.574;2023-06-14T11:30:45;99104.25;;;25.62;26.25
75447;BME280;64024;55.820;37.574;2023-06-14T11:33:17;99111.63;;;25.62;26.00
75447;BME280;64024;55.820;37.574;2023-06-14T11:35:44;99108.09;;;25.61;26.13
75447;BME280;64024;55.820;37.574;2023-06-14T11:38:12;99105.38;;;25.61;25.92
75447;BME280;64024;55.820;37.574;2023-06-14T11:40:38;99107.28;;;25.61;26.16
75447;BME280;64024;55.820;37.574;2023-06-14T11:43:04;99097.22;;;25.61;25.84
75447;BME280;64024;55.820;37.574;2023-06-14T11:45:30;99092.56;;;25.62;26.08
75447;BME280;64024;55.820;37.574;2023-06-14T11:47:57;99085.53;;;25.61;25.98
75447;BME280;64024;55.820;37.574;2023-06-14T11:50:23;99082.53;;;25.71;25.92
75447;BME280;64024;55.820;37.574;2023-06-14T11:52:56;99081.72;;;25.70;25.92
75447;BME280;64024;55.820;37.574;2023-06-14T11:55:23;99091.53;;;25.71;25.99
75447;BME280;64024;55.820;37.574;2023-06-14T11:57:49;99076.47;;;25.74;26.00
75447;BME280;64024;55.820;37.574;2023-06-14T12:00:16;99090.06;;;25.74;25.76
75447;BME280;64024;55.820;37.574;2023-06-14T12:02:52;99096.03;;;25.76;25.68
75447;BME280;64024;55.820;37.574;2023-06-14T12:05:20;99089.78;;;25.75;25.56
75447;BME280;64024;55.820;37.574;2023-06-14T12:07:46;99090.56;;;25.76;25.49
75447;BME280;64024;55.820;37.574;2023-06-14T12:10:14;99087.06;;;25.75;25.46
75447;BME280;64024;55.820;37.574;2023-06-14T12:12:40;99081.63;;;25.75;25.47
75447;BME280;64024;55.820;37.574;2023-06-14T12:15:08;99080.78;;;25.75;25.35
75447;BME280;64024;55.820;37.574;2023-06-14T12:17:37;99081.63;;;25.75;25.36
75447;BME280;64024;55.820;37.574;2023-06-14T12:20:13;99072.31;;;25.76;25.49
75447;BME280;64024;55.820;37.574;2023-06-14T12:22:54;99074.25;;;25.76;25.47
75447;BME280;64024;55.820;37.574;2023-06-14T12:25:30;99069.09;;;25.74;25.40
75447;BME280;64024;55.820;37.574;2023-06-14T12:28:09;99072.94;;;25.73;25.67
75447;BME280;64024;55.820;37.574;2023-06-14T12:30:35;99063.66;;;25.74;25.69
75447;BME280;64024;55.820;37.574;2023-06-14T12:33:03;99060.94;;;25.74;25.70
75447;BME280;64024;55.820;37.574;2023-06-14T12:35:29;99055.19;;;25.76;25.69
75447;BME280;64024;55.820;37.574;2023-06-14T12:37:54;99058.72;;;25.76;25.93
75447;BME280;64024;55.820;37.574;2023-06-14T12:40:21;99073.16;;;25.77;25.77
75447;BME280;64024;55.820;37.574;2023-06-14T12:42:47;99063.34;;;25.76;25.93
75447;BME280;64024;55.820;37.574;2023-06-14T12:45:12;99065.78;;;25.77;25.67
75447;BME280;64024;55.820;37.574;2023-06-14T12:47:39;99045.59;;;25.78;25.77
75447;BME280;64024;55.820;37.574;2023-06-14T12:50:05;99049.97;;;25.80;25.76
75447;BME280;64024;55.820;37.574;2023-06-14T12:52:32;99053.97;;;25.82;25.69
75447;BME280;64024;55.820;37.574;2023-06-14T12:55:04;99062.63;;;25.84;25.54
75447;BME280;64024;55.820;37.574;2023-06-14T12:57:30;99057.66;;;25.86;25.70
75447;BME280;64024;55.820;37.574;2023-06-14T12:59:55;99045.34;;;25.89;25.46
75447;BME280;64024;55.820;37.574;2023-06-14T13:02:21;99042.81;;;25.92;25.51
75447;BME280;64024;55.820;37.574;2023-06-14T13:04:51;99044.88;;;25.95;25.51
75447;BME280;64024;55.820;37.574;2023-06-14T13:07:17;99049.69;;;25.98;25.55
75447;BME280;64024;55.820;37.574;2023-06-14T13:09:43;99045.22;;;26.02;25.37
75447;BME280;64024;55.820;37.574;2023-06-14T13:12:10;99064.16;;;26.08;25.36
75447;BME280;64024;55.820;37.574;2023-06-14T13:14:37;99057.47;;;26.14;25.51